Hlavní strana
METAR-TAF:

METAR-TAF

Letiště :

Richmond International Airport

Richmond, Virginie, Spojené státy americké

zeměpisná šířka: 37-30-40N, zeměpisná délka: 077-19-24W, výška: 51 m

Aktuální stav počasí

Zpráva byla vytvořena před 59 minutami, v 15:54 UTC
Severovýchodní vítr 8 kt
Teplota 29°C
Vlhkost vzduchu 55%
Tlak 1013 hPa
Viditelnost: 16.1 km
Polojasno ve výšce 4000 ft

METAR: KRIC 021554Z 04008KT 10SM SCT040 29/19 A2991 RMK AO2 SLP133 T02940194

Čas: 12:53 (16:53 UTC)

Předpověď počasí

Zpráva byla vytvořena před 4 hodinami a 27 minutami, v 12:26 UTC
Předpověď platná od 02 v 12 UTC do 03 v 12 UTC
Severoseverozápadní vítr 7 kt
Viditelnost: 10 km
Jasno
Od 02 v 1700 UTC
Severní vítr 4 kt
Viditelnost: 10 km
Polojasno ve výšce 6000 ft
Od 02 v 2300 UTC
Severní vítr kt
Viditelnost: 10 km
Jasno

TAF: KRIC 021226Z 0212/0312 34007KT P6SM SKC FM021700 35004KT P6SM SCT060 FM022300 00000KT P6SM SKC

Stav a předpovědi počasí z více než 4 000 letišť (zprávy METAR a TAF).

Červené a žluté tečky na mapě představují dostupné meteorologické stanice.

Když kurzor umístíte na tečku, zobrazí se název stanice.

Pak kliknutím zobrazíte stav a předpověď počasí.

Chcete-li změnit mapu, kliknutím na zelené tlačítko se znaménkem +mapu přiblížíte, kliknutím na zelené tlačítko se znaménkem – mapu oddálíte a kliknutím na zelené šipky přejdete na sousední mapy.


METAR-TAF: